Time;durP1;ratioP1;P1;durP2;ratioP2;P2;SDS_P1;SDS_P2;PMS_P1;PMS_P2;Temp;Humidity;BMP_temperature;BMP_pressure;BME280_temperature;BME280_humidity;BME280_pressure;Samples;Min_cycle;Max_cycle;Signal;HPM_P1;HPM_P2
2021/04/12 00:02:25;;;;;;;18.02;16.10;;;29.00;96.60;;;;;;4869126;29;20647;-51
2021/04/12 00:05:00;;;;;;;18.13;16.38;;;29.10;96.70;;;;;;4871544;29;20306;-54
2021/04/12 00:07:32;;;;;;;18.17;16.35;;;29.10;96.80;;;;;;4872050;29;20587;-51
2021/04/12 00:10:06;;;;;;;17.45;15.85;;;29.10;96.80;;;;;;4872128;29;20665;-55
2021/04/12 00:12:38;;;;;;;19.17;17.33;;;29.20;96.90;;;;;;4892695;29;20243;-50
2021/04/12 00:15:11;;;;;;;19.15;17.25;;;29.20;97.00;;;;;;4967423;28;20218;-55
2021/04/12 00:17:42;;;;;;;18.27;16.67;;;29.20;97.10;;;;;;5023791;28;20293;-49
2021/04/12 00:20:23;;;;;;;18.20;16.48;;;29.30;97.10;;;;;;5045396;28;20932;-53
2021/04/12 00:22:54;;;;;;;17.75;16.13;;;29.30;97.30;;;;;;4986166;28;20247;-52
2021/04/12 00:25:28;;;;;;;19.52;17.50;;;29.40;97.30;;;;;;4975990;28;20211;-54
2021/04/12 00:28:00;;;;;;;17.92;16.23;;;29.40;97.50;;;;;;4986350;28;20286;-52
2021/04/12 00:30:32;;;;;;;20.50;18.50;;;29.40;97.40;;;;;;4988254;28;20226;-51
2021/04/12 00:33:04;;;;;;;19.00;17.20;;;29.50;97.50;;;;;;4989025;28;20429;-52
2021/04/12 00:35:38;;;;;;;20.98;18.88;;;29.50;97.50;;;;;;4989410;28;20201;-49
2021/04/12 00:38:11;;;;;;;20.30;18.38;;;29.60;97.60;;;;;;4990768;28;20207;-51
2021/04/12 00:40:45;;;;;;;22.85;20.50;;;29.60;97.60;;;;;;4988047;28;20290;-51
2021/04/12 00:43:21;;;;;;;22.00;19.73;;;29.70;97.80;;;;;;4994869;28;21571;-51
2021/04/12 00:46:23;;;;;;;21.00;19.10;;;29.70;97.80;;;;;;4985197;28;20249;-50
2021/04/12 00:49:16;;;;;;;20.40;18.40;;;29.80;97.90;;;;;;5008424;28;20659;-51
2021/04/12 00:51:52;;;;;;;19.20;17.33;;;29.80;97.80;;;;;;4962568;28;20764;-52
2021/04/12 00:54:51;;;;;;;22.65;20.35;;;29.80;97.80;;;;;;4907168;29;20302;-50
2021/04/12 00:57:45;;;;;;;21.27;19.15;;;29.90;98.00;;;;;;4939118;28;20689;-51
2021/04/12 01:00:18;;;;;;;22.33;20.10;;;29.90;97.90;;;;;;4892926;29;20231;-51
2021/04/12 01:02:58;;;;;;;22.95;20.80;;;30.00;97.90;;;;;;4875005;29;20717;-49
2021/04/12 01:05:41;;;;;;;22.35;20.20;;;30.00;98.00;;;;;;4837834;29;20572;-50
2021/04/12 01:08:41;;;;;;;22.00;19.75;;;30.10;98.00;;;;;;4838788;29;20205;-52
2021/04/12 01:11:55;;;;;;;21.70;19.55;;;30.10;98.00;;;;;;4818325;29;20210;-53
2021/04/12 01:14:50;;;;;;;21.08;18.95;;;30.20;98.00;;;;;;4851340;29;20233;-51
2021/04/12 01:18:07;;;;;;;22.70;20.38;;;30.30;98.00;;;;;;4906835;29;20651;-50
2021/04/12 01:21:12;;;;;;;22.15;20.02;;;30.40;98.20;;;;;;4854598;29;20213;-51
2021/04/12 01:24:01;;;;;;;20.98;19.00;;;30.40;98.10;;;;;;4827804;29;20224;-51
2021/04/12 01:27:08;;;;;;;20.27;18.38;;;30.50;98.20;;;;;;4887609;29;20660;-50
2021/04/12 01:30:25;;;;;;;17.88;16.17;;;30.60;98.30;;;;;;4922316;29;20214;-48
2021/04/12 01:33:38;;;;;;;17.52;15.93;;;30.70;98.20;;;;;;4875988;29;20220;-50
2021/04/12 01:36:36;;;;;;;17.67;16.08;;;30.80;98.30;;;;;;4910389;29;20215;-50
2021/04/12 01:39:12;;;;;;;18.60;16.83;;;30.90;97.30;;;;;;4887294;29;20296;-48
2021/04/12 01:42:01;;;;;;;19.48;17.35;;;31.00;97.90;;;;;;4886002;29;20241;-54
2021/04/12 01:44:41;;;;;;;19.38;17.52;;;31.00;98.00;;;;;;4909544;29;20226;-53
2021/04/12 01:47:39;;;;;;;18.42;16.30;;;31.10;97.40;;;;;;4869951;29;20207;-52
2021/04/12 01:50:29;;;;;;;18.08;16.13;;;31.20;97.40;;;;;;4922658;29;20710;-50
2021/04/12 01:53:31;;;;;;;19.15;17.13;;;31.30;97.10;;;;;;4925747;29;20222;-48
2021/04/12 01:56:30;;;;;;;20.23;18.33;;;31.30;96.80;;;;;;4874957;29;20649;-48
2021/04/12 01:59:41;;;;;;;18.08;16.35;;;31.40;96.10;;;;;;4892599;29;20244;-53
2021/04/12 02:02:25;;;;;;;17.20;15.45;;;31.50;96.10;;;;;;4910768;29;20214;-53
2021/04/12 02:05:22;;;;;;;16.85;15.20;;;31.60;96.10;;;;;;4922138;28;20215;-54
2021/04/12 02:08:02;;;;;;;16.35;14.68;;;31.60;96.00;;;;;;4954601;28;20218;-49
2021/04/12 02:11:04;;;;;;;16.45;14.80;;;31.70;96.20;;;;;;4966443;28;20209;-52
2021/04/12 02:14:17;;;;;;;15.95;14.35;;;31.80;95.90;;;;;;4976647;28;20926;-51
2021/04/12 02:16:56;;;;;;;15.98;14.52;;;31.90;95.60;;;;;;4948445;28;20215;-48
2021/04/12 02:19:46;;;;;;;16.33;14.73;;;31.90;95.50;;;;;;4960099;28;20235;-53
2021/04/12 02:22:38;;;;;;;14.95;13.43;;;32.00;95.40;;;;;;5000418;28;20215;-50
2021/04/12 02:25:13;;;;;;;15.30;13.90;;;32.10;95.40;;;;;;5008135;28;20235;-49
2021/04/12 02:27:49;;;;;;;15.95;14.48;;;32.10;95.30;;;;;;5007209;28;20976;-54
2021/04/12 02:30:21;;;;;;;16.42;14.82;;;32.20;94.90;;;;;;5006925;28;20210;-54
2021/04/12 02:33:00;;;;;;;16.17;14.65;;;32.30;94.50;;;;;;5004617;28;20200;-50
2021/04/12 02:35:40;;;;;;;15.73;14.00;;;32.30;94.30;;;;;;5004864;28;20291;-51
2021/04/12 02:38:23;;;;;;;18.83;17.17;;;32.40;94.10;;;;;;5007129;28;20202;-53
2021/04/12 02:41:13;;;;;;;16.52;14.88;;;32.40;92.80;;;;;;4948938;29;20252;-51
2021/04/12 02:43:58;;;;;;;17.58;15.73;;;32.40;92.60;;;;;;4949220;28;20226;-54
2021/04/12 02:46:59;;;;;;;15.68;14.18;;;32.60;92.90;;;;;;4985545;28;20204;-52
2021/04/12 02:49:34;;;;;;;15.43;14.00;;;32.60;93.20;;;;;;4962459;28;20208;-53
2021/04/12 02:52:13;;;;;;;16.13;14.38;;;32.70;93.40;;;;;;4987369;28;20204;-49
2021/04/12 02:55:08;;;;;;;15.20;13.65;;;32.70;93.10;;;;;;4927650;29;20245;-49
2021/04/12 02:57:47;;;;;;;15.25;13.75;;;32.80;92.60;;;;;;4891700;29;20215;-50
2021/04/12 03:00:41;;;;;;;16.08;14.57;;;32.80;92.60;;;;;;4891938;29;20241;-53
2021/04/12 03:03:34;;;;;;;14.25;12.88;;;33.00;92.50;;;;;;4891791;29;20219;-51
2021/04/12 03:06:40;;;;;;;15.20;13.70;;;33.10;92.40;;;;;;4918351;29;20214;-53
2021/04/12 03:09:41;;;;;;;17.27;15.57;;;33.20;92.50;;;;;;4945074;29;20786;-50
2021/04/12 03:12:35;;;;;;;15.63;14.13;;;33.20;90.60;;;;;;4910577;29;20246;-50
2021/04/12 03:15:29;;;;;;;15.18;13.70;;;33.30;91.00;;;;;;4910631;29;20295;-49
2021/04/12 03:18:09;;;;;;;14.52;13.32;;;33.40;91.40;;;;;;4906637;29;20931;-50
2021/04/12 03:21:02;;;;;;;16.48;14.88;;;33.40;91.70;;;;;;4870102;29;20453;-52
2021/04/12 03:23:37;;;;;;;15.35;13.95;;;33.50;90.70;;;;;;4921898;29;20206;-52
2021/04/12 03:26:12;;;;;;;16.95;15.20;;;33.60;90.60;;;;;;4967420;28;20840;-49
2021/04/12 03:28:53;;;;;;;16.73;15.00;;;33.60;87.80;;;;;;4944886;29;20209;-51
2021/04/12 03:31:48;;;;;;;15.75;14.23;;;33.70;87.80;;;;;;4967337;28;20271;-51
2021/04/12 03:34:23;;;;;;;16.27;14.82;;;33.70;87.20;;;;;;4936976;28;20568;-53
2021/04/12 03:37:55;;;;;;;13.98;12.77;;;33.80;87.50;;;;;;4906919;29;20210;-49
2021/04/12 03:40:28;;;;;;;14.27;12.98;;;33.80;87.70;;;;;;4817435;29;20233;-49
2021/04/12 03:43:22;;;;;;;14.10;12.80;;;33.90;88.10;;;;;;4900951;29;20222;-50
2021/04/12 03:46:29;;;;;;;15.75;14.15;;;34.00;87.20;;;;;;4858619;29;20243;-50
2021/04/12 03:49:38;;;;;;;15.10;13.48;;;34.10;78.70;;;;;;4871369;29;20219;-48
2021/04/12 03:52:41;;;;;;;14.35;13.05;;;34.10;77.90;;;;;;4801752;29;20249;-51
2021/04/12 03:55:52;;;;;;;15.57;14.18;;;34.10;78.00;;;;;;4767589;30;20281;-53
2021/04/12 03:58:57;;;;;;;14.10;12.80;;;34.10;77.70;;;;;;4839540;29;20213;-54
2021/04/12 04:01:49;;;;;;;15.07;13.60;;;34.10;78.30;;;;;;4899773;29;20244;-54
2021/04/12 04:05:00;;;;;;;14.75;13.30;;;34.10;78.40;;;;;;4895760;29;20218;-55
2021/04/12 04:08:00;;;;;;;13.05;11.80;;;34.20;78.70;;;;;;4861703;29;20207;-54
2021/04/12 04:10:57;;;;;;;13.50;12.23;;;34.30;81.30;;;;;;4928413;29;20733;-52
2021/04/12 04:13:37;;;;;;;15.05;13.60;;;34.30;82.10;;;;;;4941259;29;20709;-50
2021/04/12 04:16:20;;;;;;;17.73;16.00;;;34.40;80.50;;;;;;4957008;28;20208;-53
2021/04/12 04:18:55;;;;;;;16.92;15.25;;;34.40;79.70;;;;;;4956283;28;20225;-53
2021/04/12 04:21:57;;;;;;;16.10;14.60;;;34.40;80.60;;;;;;4952994;29;20953;-52
2021/04/12 04:24:51;;;;;;;17.50;15.90;;;34.40;81.20;;;;;;4947414;28;20244;-53
2021/04/12 04:27:44;;;;;;;14.63;13.23;;;34.30;79.90;;;;;;4953648;29;20210;-54
2021/04/12 04:30:38;;;;;;;16.40;14.75;;;34.20;81.60;;;;;;4988768;28;20283;-52
2021/04/12 04:33:30;;;;;;;14.15;12.77;;;34.10;81.00;;;;;;4897362;29;20235;-49
2021/04/12 04:36:21;;;;;;;15.90;14.40;;;34.00;81.90;;;;;;4894199;29;20216;-52
2021/04/12 04:39:11;;;;;;;15.43;14.02;;;33.90;81.20;;;;;;4843371;29;20235;-50
2021/04/12 04:41:51;;;;;;;13.80;12.40;;;33.90;79.80;;;;;;4843625;29;20216;-49
2021/04/12 04:44:43;;;;;;;13.40;12.10;;;33.90;80.60;;;;;;4840055;29;20213;-54
2021/04/12 04:47:58;;;;;;;14.82;13.43;;;33.80;80.50;;;;;;4843803;29;20262;-49
2021/04/12 04:51:01;;;;;;;14.23;13.02;;;33.80;79.50;;;;;;4819755;29;20217;-53
2021/04/12 04:53:44;;;;;;;15.80;14.20;;;33.80;79.20;;;;;;4838374;29;20213;-56
2021/04/12 04:56:20;;;;;;;13.23;11.98;;;33.80;78.60;;;;;;4854330;29;20218;-52
2021/04/12 04:59:00;;;;;;;12.43;11.30;;;33.70;80.10;;;;;;4972962;28;20384;-53
2021/04/12 05:01:53;;;;;;;12.23;11.13;;;33.80;80.20;;;;;;4974087;28;20216;-53
2021/04/12 05:05:04;;;;;;;14.90;13.40;;;33.70;79.50;;;;;;4966965;28;20241;-52
2021/04/12 05:08:01;;;;;;;17.27;14.80;;;33.70;80.60;;;;;;5014589;28;20683;-52
2021/04/12 05:10:55;;;;;;;14.68;13.38;;;33.60;81.20;;;;;;5009872;28;20210;-51
2021/04/12 05:13:37;;;;;;;16.05;14.60;;;33.40;82.20;;;;;;4984199;28;20242;-54
2021/04/12 05:16:54;;;;;;;14.15;12.88;;;33.40;82.80;;;;;;4994924;28;20807;-51
2021/04/12 05:19:55;;;;;;;11.85;10.75;;;33.20;83.10;;;;;;4955801;29;20233;-53
2021/04/12 05:22:42;;;;;;;14.93;13.43;;;33.20;84.00;;;;;;4947699;29;20256;-52
2021/04/12 05:25:51;;;;;;;13.02;11.98;;;33.10;83.70;;;;;;4939852;29;20210;-52
2021/04/12 05:28:39;;;;;;;14.68;13.10;;;33.20;83.90;;;;;;4892956;29;20207;-54
2021/04/12 05:31:36;;;;;;;13.45;12.13;;;33.20;83.80;;;;;;4872699;29;20341;-52
2021/04/12 05:34:23;;;;;;;12.95;11.68;;;33.10;84.50;;;;;;4830811;29;20671;-55
2021/04/12 05:37:06;;;;;;;14.85;13.38;;;33.10;84.80;;;;;;4800320;29;20295;-49
2021/04/12 05:39:54;;;;;;;14.75;13.23;;;33.20;85.70;;;;;;4800750;29;20325;-49
2021/04/12 05:42:31;;;;;;;12.82;11.52;;;33.10;85.60;;;;;;4877664;29;20208;-55
2021/04/12 05:45:17;;;;;;;12.60;11.25;;;33.10;85.70;;;;;;4844729;29;20242;-55
2021/04/12 05:48:07;;;;;;;11.20;10.10;;;33.10;85.90;;;;;;4805130;29;20229;-54
2021/04/12 05:51:01;;;;;;;12.43;11.25;;;33.20;86.60;;;;;;4770841;30;20208;-55
2021/04/12 05:54:06;;;;;;;11.10;10.18;;;33.20;85.00;;;;;;4796990;29;20731;-51
2021/04/12 05:57:05;;;;;;;10.40;9.35;;;33.20;82.90;;;;;;4789925;29;20207;-54
2021/04/12 05:59:54;;;;;;;12.98;10.65;;;33.30;83.90;;;;;;4792368;29;20231;-55
2021/04/12 06:02:34;;;;;;;10.05;9.13;;;33.30;84.60;;;;;;4790749;29;20211;-48
2021/04/12 06:05:09;;;;;;;9.35;8.35;;;33.30;84.50;;;;;;4801653;29;20258;-49
2021/04/12 06:08:02;;;;;;;11.10;9.18;;;33.40;84.90;;;;;;4804629;29;20620;-50
2021/04/12 06:10:52;;;;;;;13.85;10.60;;;33.40;84.20;;;;;;4853355;29;20832;-51
2021/04/12 06:13:46;;;;;;;10.55;8.77;;;33.40;83.60;;;;;;4921135;29;20645;-50
2021/04/12 06:16:40;;;;;;;9.82;8.82;;;33.40;83.70;;;;;;4938985;29;20577;-52
2021/04/12 06:19:25;;;;;;;10.73;7.57;;;33.40;83.20;;;;;;4972025;28;20229;-55
2021/04/12 06:22:17;;;;;;;9.93;8.27;;;33.40;83.70;;;;;;4983028;28;20212;-54
2021/04/12 06:25:33;;;;;;;10.18;9.18;;;33.30;83.50;;;;;;4993449;28;20247;-53
2021/04/12 06:28:37;;;;;;;8.30;7.45;;;33.20;84.00;;;;;;5006737;28;20290;-52
2021/04/12 06:31:23;;;;;;;11.55;8.85;;;33.20;84.20;;;;;;4994265;28;20238;-52
2021/04/12 06:34:09;;;;;;;10.85;7.53;;;33.10;84.40;;;;;;4990424;28;20300;-54
2021/04/12 06:36:49;;;;;;;8.07;7.00;;;33.10;84.80;;;;;;4990941;28;20263;-50
2021/04/12 06:39:47;;;;;;;9.75;8.13;;;33.00;85.10;;;;;;4993303;28;20246;-52
2021/04/12 06:42:35;;;;;;;11.90;8.63;;;33.00;85.40;;;;;;4951818;29;20300;-52
2021/04/12 06:45:37;;;;;;;11.82;8.68;;;33.00;85.60;;;;;;4920928;29;20221;-56
2021/04/12 06:48:34;;;;;;;9.77;8.20;;;32.90;85.60;;;;;;4865482;29;20235;-55
2021/04/12 06:51:42;;;;;;;10.68;8.50;;;32.90;85.60;;;;;;4877233;29;20219;-53
2021/04/12 06:54:46;;;;;;;9.13;7.95;;;32.90;85.70;;;;;;4865309;29;20248;-51
2021/04/12 06:57:52;;;;;;;8.82;7.50;;;32.80;85.90;;;;;;4886043;29;20298;-53
2021/04/12 07:01:05;;;;;;;7.85;6.47;;;32.80;85.90;;;;;;4882448;29;20243;-55
2021/04/12 07:04:16;;;;;;;10.25;8.70;;;32.80;86.00;;;;;;4836206;29;20738;-55
2021/04/12 07:07:36;;;;;;;10.13;9.20;;;32.80;85.90;;;;;;4841860;29;20248;-52
2021/04/12 07:10:29;;;;;;;10.63;9.52;;;32.80;86.70;;;;;;4833742;29;20205;-53
2021/04/12 07:13:04;;;;;;;13.25;9.88;;;32.80;86.10;;;;;;4853012;29;20675;-51
2021/04/12 07:16:10;;;;;;;9.13;8.23;;;32.80;86.20;;;;;;4902102;29;20245;-51
2021/04/12 07:19:31;;;;;;;9.40;8.15;;;32.70;86.50;;;;;;4942957;28;20227;-52
2021/04/12 07:22:30;;;;;;;8.32;7.53;;;32.70;86.60;;;;;;4933784;29;21409;-51
2021/04/12 07:25:50;;;;;;;9.27;8.30;;;32.70;86.60;;;;;;4878964;29;20220;-51
2021/04/12 07:28:55;;;;;;;9.27;8.43;;;32.70;86.60;;;;;;4947060;29;20627;-55
2021/04/12 07:31:54;;;;;;;11.60;8.80;;;32.80;87.30;;;;;;4914661;29;20278;-54
2021/04/12 07:35:01;;;;;;;11.80;9.48;;;32.80;87.90;;;;;;4890432;29;20211;-55
2021/04/12 07:38:03;;;;;;;9.85;8.70;;;32.80;88.20;;;;;;4913910;29;20214;-50
2021/04/12 07:41:09;;;;;;;11.27;10.07;;;32.80;88.00;;;;;;4919088;29;20238;-53
2021/04/12 07:44:15;;;;;;;11.20;10.10;;;32.80;87.90;;;;;;4948549;29;20233;-49
2021/04/12 07:47:22;;;;;;;12.02;10.82;;;32.80;87.80;;;;;;4904332;29;20763;-56
2021/04/12 07:50:32;;;;;;;13.75;11.43;;;32.90;87.60;;;;;;4927197;29;20212;-54
2021/04/12 07:53:39;;;;;;;13.20;11.10;;;32.80;87.40;;;;;;4897767;29;20211;-55
2021/04/12 07:56:51;;;;;;;12.73;11.40;;;32.70;87.60;;;;;;4910264;29;20214;-52
2021/04/12 07:59:55;;;;;;;11.82;10.65;;;32.70;87.70;;;;;;4895241;29;20230;-55
2021/04/12 08:03:02;;;;;;;12.18;10.27;;;32.70;88.10;;;;;;4897824;29;20928;-55
2021/04/12 08:05:58;;;;;;;12.05;10.88;;;32.60;87.90;;;;;;4949719;28;20209;-55
2021/04/12 08:08:47;;;;;;;12.40;11.13;;;32.60;87.80;;;;;;4958572;29;20233;-55
2021/04/12 08:12:00;;;;;;;11.55;9.98;;;32.50;88.00;;;;;;4900837;29;20271;-55
2021/04/12 08:15:06;;;;;;;12.10;10.80;;;32.50;88.10;;;;;;4916095;29;20828;-54
2021/04/12 08:18:11;;;;;;;12.55;11.10;;;32.40;88.30;;;;;;4954561;28;20240;-55
2021/04/12 08:21:15;;;;;;;11.05;10.05;;;32.40;88.60;;;;;;4937656;29;20592;-53
2021/04/12 08:24:22;;;;;;;12.70;11.40;;;32.40;88.90;;;;;;4902545;29;20547;-55
2021/04/12 08:27:26;;;;;;;13.63;12.23;;;32.40;88.70;;;;;;4901660;29;20537;-55
2021/04/12 08:30:33;;;;;;;12.32;10.77;;;32.40;88.80;;;;;;4901957;29;20712;-54
2021/04/12 08:33:29;;;;;;;12.73;11.18;;;32.30;89.30;;;;;;4899435;29;20209;-55
2021/04/12 08:36:38;;;;;;;13.40;12.00;;;32.30;89.30;;;;;;4959946;28;20299;-54
2021/04/12 08:39:42;;;;;;;14.65;12.60;;;32.30;89.30;;;;;;5009472;28;20314;-55
2021/04/12 08:42:36;;;;;;;12.10;10.98;;;32.20;89.40;;;;;;4944170;29;20267;-55
2021/04/12 08:45:14;;;;;;;12.00;10.80;;;32.20;89.30;;;;;;4961111;29;20217;-56
2021/04/12 08:48:22;;;;;;;12.52;11.23;;;32.20;89.40;;;;;;4970317;28;20229;-56
2021/04/12 08:51:37;;;;;;;12.48;11.25;;;32.20;89.50;;;;;;5008095;28;20242;-56
2021/04/12 08:54:29;;;;;;;11.10;10.00;;;32.20;89.60;;;;;;4939541;29;20257;-56
2021/04/12 08:57:28;;;;;;;13.63;10.80;;;32.10;89.70;;;;;;5013394;28;20279;-56
2021/04/12 09:00:26;;;;;;;12.50;10.77;;;32.10;89.60;;;;;;5008784;28;20234;-54
2021/04/12 09:03:40;;;;;;;12.43;10.90;;;32.20;89.70;;;;;;5034594;28;20277;-55
2021/04/12 09:06:44;;;;;;;13.38;11.48;;;32.20;90.00;;;;;;4994566;28;20233;-56
2021/04/12 09:09:49;;;;;;;13.75;12.32;;;32.20;89.80;;;;;;5018468;28;20267;-55
2021/04/12 09:12:39;;;;;;;12.88;11.60;;;32.20;90.00;;;;;;5017763;28;20325;-55
2021/04/12 09:15:32;;;;;;;11.82;10.70;;;32.20;89.80;;;;;;5035429;28;20215;-52
2021/04/12 09:18:28;;;;;;;10.65;9.68;;;32.20;90.00;;;;;;5032539;28;20298;-53
2021/04/12 09:21:46;;;;;;;11.55;10.40;;;32.20;90.10;;;;;;4918305;29;20231;-54
2021/04/12 09:24:52;;;;;;;11.13;9.55;;;32.20;90.10;;;;;;4932932;29;20244;-55
2021/04/12 09:27:45;;;;;;;11.95;9.98;;;32.20;90.20;;;;;;4880625;29;20748;-55
2021/04/12 09:30:27;;;;;;;11.45;10.27;;;32.30;90.20;;;;;;4825390;29;20233;-54
2021/04/12 09:33:23;;;;;;;10.90;9.82;;;32.30;90.10;;;;;;4824532;29;20222;-50
2021/04/12 09:36:25;;;;;;;11.40;10.40;;;32.40;90.20;;;;;;4790590;30;20216;-52
2021/04/12 09:39:11;;;;;;;12.40;10.27;;;32.40;90.00;;;;;;4772391;29;20288;-50
2021/04/12 09:42:21;;;;;;;10.85;9.85;;;32.40;89.80;;;;;;4806966;29;20254;-50
2021/04/12 09:45:22;;;;;;;11.85;10.73;;;32.40;89.80;;;;;;4817872;29;20254;-49
2021/04/12 09:48:10;;;;;;;12.43;10.63;;;32.40;89.40;;;;;;4839307;29;20219;-52
2021/04/12 09:51:17;;;;;;;10.43;9.52;;;32.40;89.20;;;;;;4921801;29;20209;-55
2021/04/12 09:54:19;;;;;;;10.00;9.10;;;32.40;89.30;;;;;;4860746;29;20217;-49
2021/04/12 09:57:42;;;;;;;12.48;10.85;;;32.40;89.60;;;;;;4815363;29;20646;-53
2021/04/12 10:00:39;;;;;;;9.57;8.43;;;32.40;90.00;;;;;;4846559;29;20240;-53
2021/04/12 10:03:48;;;;;;;9.55;8.68;;;32.50;90.00;;;;;;4848085;29;20214;-52
2021/04/12 10:06:47;;;;;;;8.18;7.47;;;32.50;90.00;;;;;;4886918;29;20287;-52
2021/04/12 10:09:35;;;;;;;10.02;9.02;;;32.50;90.00;;;;;;4865134;29;20229;-52
2021/04/12 10:12:20;;;;;;;9.23;8.32;;;32.60;90.00;;;;;;4890780;29;20234;-52
2021/04/12 10:14:51;;;;;;;10.80;9.80;;;32.60;90.00;;;;;;4881869;29;20683;-53
2021/04/12 10:17:24;;;;;;;9.65;8.10;;;32.60;90.00;;;;;;4866045;29;20202;-55
2021/04/12 10:19:55;;;;;;;9.65;8.68;;;32.60;89.70;;;;;;4905985;29;20303;-54
2021/04/12 10:22:37;;;;;;;9.80;8.85;;;32.70;89.90;;;;;;4949517;29;20205;-52
2021/04/12 10:25:09;;;;;;;11.35;9.70;;;32.70;89.90;;;;;;4950945;29;20288;-55
2021/04/12 10:27:41;;;;;;;10.80;8.80;;;32.70;89.70;;;;;;4975290;28;20199;-50
2021/04/12 10:30:13;;;;;;;9.15;8.25;;;32.70;89.60;;;;;;4962506;28;20289;-55
2021/04/12 10:32:47;;;;;;;10.00;8.65;;;32.70;89.60;;;;;;4964611;28;20196;-55
2021/04/12 10:35:22;;;;;;;9.15;8.32;;;32.80;89.80;;;;;;4960543;28;20679;-55
2021/04/12 10:37:59;;;;;;;10.02;9.02;;;32.80;89.80;;;;;;4963075;28;20273;-55
2021/04/12 10:40:32;;;;;;;10.05;9.05;;;32.80;89.80;;;;;;4991013;28;20234;-51
2021/04/12 10:43:05;;;;;;;9.93;8.93;;;32.80;89.80;;;;;;5030918;28;20206;-55
2021/04/12 10:45:38;;;;;;;9.48;8.48;;;32.80;89.70;;;;;;4994773;28;20235;-55
2021/04/12 10:48:14;;;;;;;10.18;9.18;;;32.80;89.60;;;;;;4994265;28;20204;-55
2021/04/12 10:51:06;;;;;;;9.75;8.90;;;32.80;89.60;;;;;;4991816;28;20208;-55
2021/04/12 10:53:58;;;;;;;10.25;9.18;;;32.80;89.40;;;;;;4935429;29;20234;-56
2021/04/12 10:56:32;;;;;;;12.55;10.35;;;32.80;89.40;;;;;;4922127;29;20217;-49
2021/04/12 10:59:38;;;;;;;9.82;8.80;;;32.80;89.30;;;;;;4944953;29;20206;-55
2021/04/12 11:02:12;;;;;;;8.63;7.35;;;32.80;89.60;;;;;;4873961;29;20206;-50
2021/04/12 11:05:00;;;;;;;8.70;7.85;;;32.80;89.50;;;;;;4919483;29;20202;-49
2021/04/12 11:07:42;;;;;;;9.95;8.88;;;32.70;89.80;;;;;;4902050;29;20211;-51
2021/04/12 11:10:19;;;;;;;9.77;8.88;;;32.70;90.00;;;;;;4902444;29;20246;-54
2021/04/12 11:12:58;;;;;;;10.70;9.60;;;32.70;89.90;;;;;;4849699;29;20242;-53
2021/04/12 11:15:52;;;;;;;9.88;9.00;;;32.60;90.00;;;;;;4872195;29;20220;-53
2021/04/12 11:18:28;;;;;;;9.63;8.65;;;32.70;90.20;;;;;;4871134;29;20271;-56
2021/04/12 11:21:07;;;;;;;10.93;9.88;;;32.60;90.10;;;;;;4814094;29;20608;-55
2021/04/12 11:23:39;;;;;;;11.68;10.10;;;32.60;90.10;;;;;;4815687;29;20225;-55
2021/04/12 11:26:13;;;;;;;10.30;9.27;;;32.60;90.00;;;;;;4901293;29;20257;-53
2021/04/12 11:28:52;;;;;;;12.13;9.27;;;32.50;90.10;;;;;;4939230;29;20220;-55
2021/04/12 11:31:34;;;;;;;10.98;9.90;;;32.50;89.90;;;;;;4939874;29;20951;-53
2021/04/12 11:34:22;;;;;;;12.10;10.95;;;32.50;89.70;;;;;;4863202;29;20209;-56
2021/04/12 11:37:16;;;;;;;9.90;9.10;;;32.40;89.30;;;;;;4870675;29;20256;-56
2021/04/12 11:39:53;;;;;;;10.95;8.80;;;32.40;89.30;;;;;;4831795;29;20695;-53
2021/04/12 11:42:25;;;;;;;9.45;8.65;;;32.40;89.60;;;;;;4794505;29;20215;-55
2021/04/12 11:44:58;;;;;;;9.57;8.65;;;32.30;89.50;;;;;;4834360;29;20212;-53
2021/04/12 11:47:39;;;;;;;10.27;9.27;;;32.30;89.80;;;;;;4883083;29;20240;-54
2021/04/12 11:50:19;;;;;;;11.40;10.25;;;32.30;89.70;;;;;;4879985;29;20712;-54
2021/04/12 11:52:56;;;;;;;12.70;10.50;;;32.30;89.80;;;;;;4889245;29;20347;-56
2021/04/12 11:55:31;;;;;;;10.98;9.73;;;32.20;90.00;;;;;;4876864;29;20219;-54
2021/04/12 11:58:04;;;;;;;10.32;9.13;;;32.20;90.00;;;;;;4901327;29;20209;-53
2021/04/12 12:00:37;;;;;;;10.45;9.25;;;32.20;90.00;;;;;;4953118;29;20289;-53
2021/04/12 12:03:30;;;;;;;11.00;9.25;;;32.20;90.10;;;;;;4955832;29;20205;-55
2021/04/12 12:06:08;;;;;;;11.20;10.02;;;32.20;90.20;;;;;;4943683;29;20205;-51
2021/04/12 12:08:55;;;;;;;10.95;9.93;;;32.20;90.20;;;;;;4951400;29;20209;-55
2021/04/12 12:11:34;;;;;;;11.85;10.18;;;32.20;90.20;;;;;;4898527;29;20275;-54
2021/04/12 12:14:06;;;;;;;11.00;10.00;;;32.10;90.10;;;;;;4884308;29;20248;-54
2021/04/12 12:16:40;;;;;;;11.20;10.10;;;32.10;90.00;;;;;;4890522;29;20792;-52
2021/04/12 12:19:20;;;;;;;11.30;10.10;;;32.10;90.00;;;;;;4942504;28;20259;-53
2021/04/12 12:21:51;;;;;;;11.18;10.07;;;32.10;90.00;;;;;;4974973;28;20713;-52
2021/04/12 12:24:27;;;;;;;12.00;10.70;;;32.10;90.00;;;;;;4973075;28;20213;-51
2021/04/12 12:27:02;;;;;;;11.93;10.80;;;32.10;90.00;;;;;;4974158;28;20256;-54
2021/04/12 12:29:33;;;;;;;12.02;10.82;;;32.00;89.90;;;;;;4927098;29;20216;-53
2021/04/12 12:32:29;;;;;;;12.75;10.52;;;32.00;90.00;;;;;;4926526;29;20305;-51
2021/04/12 12:35:07;;;;;;;10.48;9.48;;;32.00;90.10;;;;;;4919037;29;20254;-55
2021/04/12 12:37:48;;;;;;;13.43;10.13;;;32.00;90.10;;;;;;4954614;29;20208;-53
2021/04/12 12:40:20;;;;;;;11.32;10.10;;;32.00;90.20;;;;;;4953968;29;20260;-53
2021/04/12 12:42:52;;;;;;;13.60;10.70;;;32.00;90.10;;;;;;4954404;29;20281;-54
2021/04/12 12:45:28;;;;;;;10.85;9.85;;;31.90;90.10;;;;;;4951450;28;20217;-52
2021/04/12 12:47:59;;;;;;;11.57;10.48;;;31.90;90.10;;;;;;4973543;28;20236;-55
2021/04/12 12:50:42;;;;;;;10.50;9.45;;;31.90;90.00;;;;;;4973335;28;20268;-51
2021/04/12 12:53:15;;;;;;;10.70;9.70;;;31.90;90.00;;;;;;4972741;28;20208;-53
2021/04/12 12:55:49;;;;;;;11.23;10.30;;;31.90;90.00;;;;;;4974012;28;20243;-55
2021/04/12 12:58:21;;;;;;;11.10;10.10;;;31.90;90.00;;;;;;4977185;28;20204;-55
2021/04/12 13:00:52;;;;;;;10.65;9.65;;;31.90;90.10;;;;;;5001799;28;20230;-55
2021/04/12 13:03:29;;;;;;;10.98;9.85;;;31.80;90.10;;;;;;5012916;28;20648;-53
2021/04/12 13:06:00;;;;;;;11.25;10.23;;;31.80;90.30;;;;;;5012339;28;20214;-54
2021/04/12 13:08:34;;;;;;;11.15;9.95;;;31.80;90.20;;;;;;5016231;28;20203;-55
2021/04/12 13:11:06;;;;;;;11.82;10.45;;;31.80;90.30;;;;;;4976661;28;20251;-54
2021/04/12 13:13:36;;;;;;;15.20;12.02;;;31.80;90.30;;;;;;4948091;29;20397;-53
2021/04/12 13:16:12;;;;;;;12.90;11.60;;;31.70;90.30;;;;;;4972230;28;20212;-55
2021/04/12 13:18:45;;;;;;;11.90;10.55;;;31.70;90.40;;;;;;4995670;28;20271;-55
2021/04/12 13:21:16;;;;;;;10.82;9.80;;;31.70;90.40;;;;;;4996615;28;20240;-55
2021/04/12 13:23:55;;;;;;;11.20;9.93;;;31.70;90.30;;;;;;4996172;28;20292;-53
2021/04/12 13:26:31;;;;;;;10.63;9.63;;;31.70;90.40;;;;;;4996035;28;20274;-54
2021/04/12 13:29:07;;;;;;;9.82;8.82;;;31.70;90.40;;;;;;4994368;28;20656;-52
2021/04/12 13:31:40;;;;;;;11.30;10.00;;;31.70;90.50;;;;;;4937342;29;20230;-54
2021/04/12 13:34:13;;;;;;;11.82;9.80;;;31.60;90.50;;;;;;4878876;29;20215;-55
2021/04/12 13:36:46;;;;;;;9.93;9.02;;;31.70;90.60;;;;;;4878582;29;20208;-54
2021/04/12 13:39:17;;;;;;;10.75;9.65;;;31.70;90.60;;;;;;4879405;29;20625;-55
2021/04/12 13:41:48;;;;;;;10.13;9.23;;;31.60;90.60;;;;;;4895572;29;20241;-55
2021/04/12 13:44:20;;;;;;;10.23;9.13;;;31.60;90.60;;;;;;4931377;29;20265;-52
2021/04/12 13:46:54;;;;;;;10.88;9.77;;;31.60;90.60;;;;;;4943415;29;20241;-54
2021/04/12 13:49:26;;;;;;;11.45;10.35;;;31.60;90.70;;;;;;4945130;29;20205;-55
2021/04/12 13:52:03;;;;;;;11.55;10.35;;;31.60;90.80;;;;;;4950669;29;20242;-54
2021/04/12 13:54:34;;;;;;;11.00;9.90;;;31.60;90.80;;;;;;4945389;29;20228;-53
2021/04/12 13:57:08;;;;;;;10.13;9.23;;;31.50;90.80;;;;;;4945926;29;20205;-52
2021/04/12 13:59:39;;;;;;;11.45;10.40;;;31.50;91.00;;;;;;5007417;28;20219;-54
2021/04/12 14:02:23;;;;;;;17.65;13.90;;;31.50;91.00;;;;;;5028889;28;20724;-54
2021/04/12 14:04:55;;;;;;;15.55;13.32;;;31.50;91.00;;;;;;5056874;28;20248;-54
2021/04/12 14:07:38;;;;;;;13.45;10.70;;;31.40;91.00;;;;;;5057417;28;20206;-53
2021/04/12 14:10:12;;;;;;;13.18;10.57;;;31.40;91.20;;;;;;5056051;28;20213;-53
2021/04/12 14:12:54;;;;;;;10.05;9.15;;;31.40;91.20;;;;;;5016500;28;20231;-55
2021/04/12 14:15:34;;;;;;;8.88;8.15;;;31.40;91.30;;;;;;5034025;28;20209;-54
2021/04/12 14:18:05;;;;;;;10.15;9.25;;;31.40;91.30;;;;;;4995102;28;20222;-55
2021/04/12 14:20:39;;;;;;;9.23;8.35;;;31.40;91.20;;;;;;4995436;28;20347;-55